createdAt,value
2019-03-26T00:00:41.969Z,1.00
2019-03-26T00:03:08.486Z,1.00
2019-03-26T00:05:34.895Z,1.00
2019-03-26T00:08:01.329Z,1.00
2019-03-26T00:10:27.717Z,1.00
2019-03-26T00:12:54.151Z,1.00
2019-03-26T00:15:20.623Z,1.00
2019-03-26T00:17:47.030Z,1.00
2019-03-26T00:20:13.521Z,1.10
2019-03-26T00:22:39.947Z,1.10
2019-03-26T00:25:06.477Z,1.10
2019-03-26T00:27:32.952Z,1.10
2019-03-26T00:29:59.358Z,1.20
2019-03-26T00:32:25.751Z,1.20
2019-03-26T00:34:52.205Z,1.10
2019-03-26T00:37:18.663Z,1.10
2019-03-26T00:39:45.075Z,1.00
2019-03-26T00:42:11.515Z,1.00
2019-03-26T00:44:37.903Z,1.00
2019-03-26T00:47:04.379Z,1.10
2019-03-26T00:49:30.795Z,1.20
2019-03-26T00:51:57.240Z,1.00
2019-03-26T00:54:23.678Z,0.90
2019-03-26T00:56:50.013Z,0.90
2019-03-26T00:59:16.441Z,0.90
2019-03-26T01:01:42.899Z,0.80
2019-03-26T01:04:09.299Z,0.80
2019-03-26T01:06:35.658Z,0.80
2019-03-26T01:09:04.301Z,0.90
2019-03-26T01:11:30.847Z,0.90
2019-03-26T01:13:57.246Z,0.90
2019-03-26T01:16:23.673Z,0.90
2019-03-26T01:18:50.093Z,0.90
2019-03-26T01:21:16.528Z,0.90
2019-03-26T01:23:42.932Z,0.90
2019-03-26T01:26:09.369Z,0.90
2019-03-26T01:28:35.761Z,0.90
2019-03-26T01:31:02.177Z,0.90
2019-03-26T01:33:28.557Z,0.90
2019-03-26T01:35:54.946Z,0.90
2019-03-26T01:38:21.369Z,0.90
2019-03-26T01:40:47.705Z,0.80
2019-03-26T01:43:14.164Z,0.80
2019-03-26T01:45:41.607Z,0.70
2019-03-26T01:48:08.001Z,0.80
2019-03-26T01:50:34.442Z,0.70
2019-03-26T01:53:00.931Z,0.70
2019-03-26T01:55:27.401Z,0.70
2019-03-26T01:57:53.841Z,0.70
2019-03-26T02:00:20.304Z,0.70
2019-03-26T02:02:46.756Z,0.70
2019-03-26T02:05:13.208Z,0.70
2019-03-26T02:07:39.601Z,0.60
2019-03-26T02:10:06.159Z,0.70
2019-03-26T02:12:32.573Z,0.70
2019-03-26T02:14:59.054Z,0.70
2019-03-26T02:17:25.449Z,0.70
2019-03-26T02:19:51.872Z,0.70
2019-03-26T02:22:18.302Z,0.80
2019-03-26T02:24:44.679Z,0.70
2019-03-26T02:27:11.031Z,0.80
2019-03-26T02:29:37.450Z,0.80
2019-03-26T02:32:03.810Z,0.80
2019-03-26T02:34:30.211Z,0.80
2019-03-26T02:36:56.546Z,0.80
2019-03-26T02:39:22.968Z,0.70
2019-03-26T02:41:49.352Z,0.70
2019-03-26T02:44:15.784Z,0.80
2019-03-26T02:46:42.230Z,0.80
2019-03-26T02:49:08.693Z,0.70
2019-03-26T02:51:35.118Z,0.80
2019-03-26T02:54:01.586Z,0.70
2019-03-26T02:56:28.048Z,0.60
2019-03-26T02:58:54.438Z,0.60
2019-03-26T03:01:20.831Z,0.60
2019-03-26T03:03:47.231Z,0.50
2019-03-26T03:06:13.644Z,0.50
2019-03-26T03:08:40.099Z,0.60
2019-03-26T03:11:06.550Z,0.50
2019-03-26T03:13:32.968Z,0.50
2019-03-26T03:15:59.408Z,0.60
2019-03-26T03:18:25.814Z,0.60
2019-03-26T03:20:52.353Z,0.60
2019-03-26T03:23:18.713Z,0.60
2019-03-26T03:25:45.128Z,0.60
2019-03-26T03:28:11.470Z,0.60
2019-03-26T03:30:37.816Z,0.50
2019-03-26T03:33:04.173Z,0.60
2019-03-26T03:35:30.582Z,0.60
2019-03-26T03:37:56.977Z,0.50
2019-03-26T03:40:23.482Z,0.50
2019-03-26T03:42:49.867Z,0.50
2019-03-26T03:45:20.135Z,0.50
2019-03-26T03:47:46.831Z,0.40
2019-03-26T03:50:13.409Z,0.40
2019-03-26T03:52:39.937Z,0.40
2019-03-26T03:55:06.744Z,0.40
2019-03-26T03:57:36.919Z,0.40
2019-03-26T04:00:07.142Z,0.40
2019-03-26T04:02:33.494Z,0.30
2019-03-26T04:04:59.856Z,0.40
2019-03-26T04:07:26.321Z,0.30
2019-03-26T04:09:52.740Z,0.30
2019-03-26T04:12:19.246Z,0.40
2019-03-26T04:14:45.757Z,0.40
2019-03-26T04:17:12.206Z,0.50
2019-03-26T04:19:38.660Z,0.60
2019-03-26T04:22:05.058Z,0.70
2019-03-26T04:24:31.482Z,0.90
2019-03-26T04:26:57.880Z,0.90
2019-03-26T04:29:24.298Z,0.90
2019-03-26T04:31:50.793Z,1.00
2019-03-26T04:34:17.228Z,1.00
2019-03-26T04:36:43.644Z,1.00
2019-03-26T04:39:10.050Z,1.00
2019-03-26T04:41:36.437Z,1.10
2019-03-26T04:44:02.812Z,1.20
2019-03-26T04:46:29.195Z,1.10
2019-03-26T04:48:55.567Z,1.10
2019-03-26T04:51:21.969Z,1.10
2019-03-26T04:53:48.356Z,1.10
2019-03-26T04:56:14.802Z,1.20
2019-03-26T04:58:43.881Z,1.10
2019-03-26T05:01:09.448Z,1.10
2019-03-26T05:03:35.883Z,1.10
2019-03-26T05:06:02.291Z,1.20
2019-03-26T05:08:28.731Z,1.20
2019-03-26T05:10:55.172Z,1.30
2019-03-26T05:13:21.606Z,1.30
2019-03-26T05:15:47.999Z,1.30
2019-03-26T05:18:15.538Z,1.20
2019-03-26T05:20:42.009Z,1.30
2019-03-26T05:23:08.423Z,1.30
2019-03-26T05:25:34.877Z,1.30
2019-03-26T05:28:01.325Z,1.40
2019-03-26T05:30:27.727Z,1.40
2019-03-26T05:32:54.093Z,1.30
2019-03-26T05:35:20.610Z,1.40
2019-03-26T05:37:46.962Z,1.40
2019-03-26T05:40:14.402Z,1.40
2019-03-26T05:42:40.781Z,1.40
2019-03-26T05:45:08.461Z,1.40
2019-03-26T05:47:35.815Z,1.50
2019-03-26T05:50:04.861Z,1.40
2019-03-26T05:52:31.235Z,1.50
2019-03-26T05:54:57.700Z,1.50
2019-03-26T05:57:24.120Z,1.60
2019-03-26T05:59:50.569Z,1.60
2019-03-26T06:02:18.109Z,1.60
2019-03-26T06:04:44.640Z,1.60
2019-03-26T06:07:11.135Z,1.60
2019-03-26T06:09:37.617Z,1.70
2019-03-26T06:12:04.054Z,1.70
2019-03-26T06:14:30.485Z,1.70
2019-03-26T06:16:56.866Z,1.70
2019-03-26T06:19:23.246Z,1.70
2019-03-26T06:21:49.642Z,1.80
2019-03-26T06:24:16.068Z,1.80
2019-03-26T06:26:42.419Z,1.90
2019-03-26T06:29:08.884Z,2.00
2019-03-26T06:31:35.264Z,2.00
2019-03-26T06:34:01.672Z,2.00
2019-03-26T06:36:28.057Z,2.10
2019-03-26T06:38:54.494Z,2.20
2019-03-26T06:41:20.944Z,2.20
2019-03-26T06:43:47.396Z,2.30
2019-03-26T06:46:13.818Z,2.40
2019-03-26T06:48:40.223Z,2.50
2019-03-26T06:51:06.673Z,2.50
2019-03-26T06:53:33.111Z,2.60
2019-03-26T06:55:59.555Z,2.60
2019-03-26T06:58:25.959Z,2.70
2019-03-26T07:00:52.451Z,2.70
2019-03-26T07:03:18.843Z,2.70
2019-03-26T07:05:45.234Z,2.80
2019-03-26T07:08:11.600Z,2.90
2019-03-26T07:10:37.993Z,2.80
2019-03-26T07:13:04.410Z,2.90
2019-03-26T07:15:30.847Z,2.90
2019-03-26T07:17:57.334Z,2.80
2019-03-26T07:20:23.776Z,2.80
2019-03-26T07:22:50.218Z,2.80
2019-03-26T07:25:17.063Z,2.80
2019-03-26T07:27:43.671Z,2.80
2019-03-26T07:30:13.038Z,2.90
2019-03-26T07:32:39.494Z,3.00
2019-03-26T07:35:06.981Z,3.10
2019-03-26T07:37:44.469Z,3.40
2019-03-26T07:40:03.141Z,3.80
2019-03-26T07:42:29.529Z,4.40
2019-03-26T07:44:55.883Z,4.80
2019-03-26T07:47:22.390Z,4.80
2019-03-26T07:49:48.802Z,4.70
2019-03-26T07:52:15.723Z,4.40
2019-03-26T07:54:42.281Z,4.30
2019-03-26T07:57:08.733Z,4.10
2019-03-26T07:59:35.175Z,4.10
2019-03-26T08:02:01.608Z,4.20
2019-03-26T08:04:28.063Z,4.20
2019-03-26T08:06:54.467Z,4.30
2019-03-26T08:09:20.901Z,4.50
2019-03-26T08:11:47.336Z,4.50
2019-03-26T08:14:14.871Z,4.50
2019-03-26T08:16:41.327Z,4.50
2019-03-26T08:19:07.710Z,4.40
2019-03-26T08:21:34.168Z,4.40
2019-03-26T08:24:00.616Z,4.30
2019-03-26T08:26:27.117Z,4.20
2019-03-26T08:28:53.527Z,4.10
2019-03-26T08:31:20.016Z,4.20
2019-03-26T08:33:46.483Z,4.20
2019-03-26T08:36:12.868Z,4.20
2019-03-26T08:38:39.289Z,4.20
2019-03-26T08:41:05.774Z,4.20
2019-03-26T08:43:33.303Z,4.20
2019-03-26T08:45:59.773Z,4.20
2019-03-26T08:48:26.349Z,4.20
2019-03-26T08:50:52.764Z,4.20
2019-03-26T08:53:20.183Z,4.20
2019-03-26T08:55:46.594Z,4.10
2019-03-26T08:58:12.951Z,4.10
2019-03-26T09:00:39.357Z,4.20
2019-03-26T09:03:05.674Z,4.20
2019-03-26T09:05:32.080Z,4.20
2019-03-26T09:07:58.465Z,4.20
2019-03-26T09:10:24.907Z,4.20
2019-03-26T09:12:51.284Z,4.20
2019-03-26T09:15:17.701Z,4.30
2019-03-26T09:17:44.786Z,4.50
2019-03-26T09:20:12.001Z,4.50
2019-03-26T09:22:38.533Z,4.60
2019-03-26T09:25:05.979Z,4.70
2019-03-26T09:27:32.458Z,4.70
2019-03-26T09:29:59.866Z,4.80
2019-03-26T09:32:26.331Z,4.90
2019-03-26T09:34:52.792Z,5.00
2019-03-26T09:37:19.219Z,5.00
2019-03-26T09:39:45.623Z,5.20
2019-03-26T09:42:12.065Z,5.30
2019-03-26T09:44:38.501Z,5.20
2019-03-26T09:47:15.490Z,5.20
2019-03-26T09:49:33.142Z,5.20
2019-03-26T09:52:00.470Z,5.10
2019-03-26T09:54:26.885Z,5.00
2019-03-26T09:56:53.400Z,4.90
2019-03-26T09:59:19.806Z,4.90
2019-03-26T10:01:46.248Z,4.90
2019-03-26T10:04:12.675Z,5.10
2019-03-26T10:06:39.116Z,5.10
2019-03-26T10:09:05.938Z,5.10
2019-03-26T10:11:32.887Z,5.00
2019-03-26T10:13:59.307Z,5.20
2019-03-26T10:16:25.783Z,5.30
2019-03-26T10:18:52.277Z,5.30
2019-03-26T10:21:18.706Z,5.20
2019-03-26T10:23:45.172Z,5.30
2019-03-26T10:26:11.626Z,5.30
2019-03-26T10:28:38.098Z,5.50
2019-03-26T10:31:04.546Z,5.80
2019-03-26T10:33:31.031Z,5.90
2019-03-26T10:35:57.474Z,5.80
2019-03-26T10:38:23.935Z,5.90
2019-03-26T10:40:50.342Z,5.80
2019-03-26T10:43:17.064Z,6.00
2019-03-26T10:45:43.582Z,5.90
2019-03-26T10:48:11.067Z,5.90
2019-03-26T10:50:37.543Z,5.90
2019-03-26T10:53:03.992Z,6.00
2019-03-26T10:55:30.443Z,5.90
2019-03-26T10:57:56.867Z,5.90
2019-03-26T11:00:24.336Z,6.10
2019-03-26T11:02:53.994Z,6.20
2019-03-26T11:05:20.523Z,6.30
2019-03-26T11:07:46.934Z,6.60
2019-03-26T11:10:13.395Z,6.80
2019-03-26T11:12:40.877Z,6.90
2019-03-26T11:15:08.934Z,6.90
2019-03-26T11:17:35.802Z,6.90
2019-03-26T11:20:03.931Z,6.80
2019-03-26T11:22:30.295Z,6.80
2019-03-26T11:24:57.796Z,6.90
2019-03-26T11:27:24.207Z,7.00
2019-03-26T11:29:50.687Z,7.10
2019-03-26T11:32:17.121Z,7.80
2019-03-26T11:34:43.573Z,9.40
2019-03-26T11:37:10.016Z,9.80
2019-03-26T11:39:36.446Z,9.90
2019-03-26T11:42:02.850Z,10.60
2019-03-26T11:44:29.306Z,10.40
2019-03-26T11:46:55.817Z,10.10
2019-03-26T11:49:22.250Z,10.00
2019-03-26T11:51:48.774Z,9.80
2019-03-26T11:54:15.240Z,9.40
2019-03-26T11:56:41.655Z,9.00
2019-03-26T11:59:08.132Z,8.50
2019-03-26T12:01:34.677Z,8.20
2019-03-26T12:04:01.078Z,7.80
2019-03-26T12:06:27.534Z,7.30
2019-03-26T12:08:54.003Z,7.10
2019-03-26T12:11:20.490Z,6.90
2019-03-26T12:13:46.930Z,6.70
2019-03-26T12:16:13.329Z,6.60
2019-03-26T12:18:39.799Z,6.50
2019-03-26T12:21:06.376Z,6.40
2019-03-26T12:23:32.801Z,6.20
2019-03-26T12:25:59.241Z,6.10
2019-03-26T12:28:25.866Z,5.90
2019-03-26T12:30:52.496Z,5.80
2019-03-26T12:33:19.096Z,5.80
2019-03-26T12:35:45.502Z,5.90
2019-03-26T12:38:16.713Z,6.00
2019-03-26T12:40:44.810Z,6.10
2019-03-26T12:43:11.560Z,6.20
2019-03-26T12:45:37.970Z,6.30
2019-03-26T12:48:04.381Z,6.40
2019-03-26T12:50:32.304Z,6.40
2019-03-26T12:52:58.832Z,6.40
2019-03-26T12:55:25.324Z,6.30
2019-03-26T12:57:51.814Z,6.30
2019-03-26T13:00:22.091Z,6.40
2019-03-26T13:02:48.540Z,6.30
2019-03-26T13:05:15.245Z,6.20
2019-03-26T13:07:41.733Z,6.30
2019-03-26T13:10:14.067Z,6.50
2019-03-26T13:12:37.153Z,7.00
2019-03-26T13:15:05.752Z,7.20
2019-03-26T13:17:32.208Z,7.40
2019-03-26T13:19:58.677Z,7.50
2019-03-26T13:22:25.233Z,7.40
2019-03-26T13:24:51.601Z,7.40
2019-03-26T13:27:18.088Z,7.30
2019-03-26T13:29:44.476Z,7.20
2019-03-26T13:32:13.073Z,7.10
2019-03-26T13:34:39.301Z,7.10
2019-03-26T13:37:05.639Z,7.00
2019-03-26T13:39:32.093Z,7.10
2019-03-26T13:41:58.498Z,7.20
2019-03-26T13:44:25.219Z,7.20
2019-03-26T13:46:51.701Z,7.40
2019-03-26T13:49:18.105Z,8.40
2019-03-26T13:51:44.519Z,8.90
2019-03-26T13:54:10.853Z,9.50
2019-03-26T13:56:37.302Z,10.30
2019-03-26T13:59:03.674Z,10.70
2019-03-26T14:01:30.084Z,10.00
2019-03-26T14:03:56.667Z,9.70
2019-03-26T14:06:23.103Z,9.50
2019-03-26T14:08:49.591Z,9.20
2019-03-26T14:11:16.210Z,8.80
2019-03-26T14:13:42.731Z,8.50
2019-03-26T14:16:09.226Z,8.10
2019-03-26T14:18:35.804Z,7.70
2019-03-26T14:21:03.039Z,7.40
2019-03-26T14:23:29.502Z,7.30
2019-03-26T14:25:55.955Z,7.10
2019-03-26T14:28:22.637Z,7.30
2019-03-26T14:30:49.099Z,7.30
2019-03-26T14:33:15.535Z,6.90
2019-03-26T14:35:42.578Z,6.40
2019-03-26T14:38:09.315Z,5.70
2019-03-26T14:40:36.896Z,5.10
2019-03-26T14:43:03.682Z,4.90
2019-03-26T14:45:30.210Z,4.80
2019-03-26T14:47:56.693Z,4.80
2019-03-26T14:50:23.228Z,4.80
2019-03-26T14:52:49.603Z,4.90
2019-03-26T14:55:16.039Z,5.00
2019-03-26T14:57:42.438Z,4.80
2019-03-26T15:00:09.680Z,4.70
2019-03-26T15:02:38.624Z,4.70
2019-03-26T15:05:06.153Z,4.80
2019-03-26T15:07:32.606Z,4.90
2019-03-26T15:09:59.431Z,4.90
2019-03-26T15:12:25.850Z,4.90
2019-03-26T15:14:52.284Z,5.00
2019-03-26T15:17:18.754Z,5.10
2019-03-26T15:19:45.271Z,5.20
2019-03-26T15:22:11.725Z,5.40
2019-03-26T15:24:38.334Z,5.60
2019-03-26T15:27:04.856Z,5.70
2019-03-26T15:29:31.573Z,5.60
2019-03-26T15:31:58.063Z,5.70
2019-03-26T15:34:35.656Z,5.70
2019-03-26T15:36:53.029Z,5.80
2019-03-26T15:39:19.456Z,5.80
2019-03-26T15:41:45.876Z,5.80
2019-03-26T15:44:12.473Z,5.90
2019-03-26T15:46:39.252Z,5.90
2019-03-26T15:49:05.603Z,5.90
2019-03-26T15:51:32.093Z,5.80
2019-03-26T15:53:58.800Z,5.70
2019-03-26T15:56:25.231Z,5.70
2019-03-26T15:58:51.627Z,5.60
2019-03-26T16:01:18.291Z,5.60
2019-03-26T16:03:44.814Z,5.50
2019-03-26T16:06:11.267Z,5.50
2019-03-26T16:08:37.726Z,5.60
2019-03-26T16:11:04.798Z,5.50
2019-03-26T16:13:31.282Z,5.50
2019-03-26T16:15:58.021Z,5.40
2019-03-26T16:18:26.560Z,5.50
2019-03-26T16:20:53.033Z,5.40
2019-03-26T16:23:19.452Z,5.20
2019-03-26T16:25:45.885Z,5.00
2019-03-26T16:28:12.491Z,4.70
2019-03-26T16:30:39.839Z,4.50
2019-03-26T16:33:06.788Z,4.40
2019-03-26T16:35:33.222Z,4.20
2019-03-26T16:37:59.868Z,4.10
2019-03-26T16:40:26.457Z,3.90
2019-03-26T16:42:53.033Z,3.80
2019-03-26T16:45:19.466Z,3.70
2019-03-26T16:47:46.210Z,3.70
2019-03-26T16:50:14.087Z,3.70
2019-03-26T16:52:40.803Z,3.60
2019-03-26T16:55:08.135Z,3.60
2019-03-26T16:57:34.543Z,3.50
2019-03-26T17:00:01.616Z,3.40
2019-03-26T17:02:29.376Z,3.30
2019-03-26T17:04:55.944Z,3.30
2019-03-26T17:07:22.514Z,3.20
2019-03-26T17:09:48.923Z,3.20
2019-03-26T17:12:15.551Z,3.10
2019-03-26T17:14:42.090Z,3.10
2019-03-26T17:17:08.451Z,3.00
2019-03-26T17:19:34.868Z,2.90
2019-03-26T17:22:01.311Z,2.80
2019-03-26T17:24:27.837Z,2.80
2019-03-26T17:26:54.739Z,2.70
2019-03-26T17:29:23.575Z,2.60
2019-03-26T17:31:50.567Z,2.60
2019-03-26T17:34:17.126Z,2.50
2019-03-26T17:36:43.653Z,2.40
2019-03-26T17:39:10.084Z,2.30
2019-03-26T17:41:36.539Z,2.30
2019-03-26T17:44:03.578Z,2.30
2019-03-26T17:46:30.023Z,2.20
2019-03-26T17:48:57.935Z,2.30
2019-03-26T17:51:24.903Z,2.20
2019-03-26T17:53:51.605Z,2.00
2019-03-26T17:56:19.650Z,2.00
2019-03-26T17:58:46.117Z,1.90
2019-03-26T18:01:12.551Z,1.80
2019-03-26T18:03:39.147Z,1.70
2019-03-26T18:06:05.546Z,1.50
2019-03-26T18:08:31.937Z,1.50
2019-03-26T18:10:58.384Z,1.40
2019-03-26T18:13:24.824Z,1.30
2019-03-26T18:15:51.240Z,1.30
2019-03-26T18:18:17.668Z,1.20
2019-03-26T18:20:44.190Z,1.20
2019-03-26T18:23:10.598Z,1.20
2019-03-26T18:25:36.932Z,1.20
2019-03-26T18:28:03.373Z,1.10
2019-03-26T18:30:29.747Z,1.10
2019-03-26T18:32:56.174Z,1.20
2019-03-26T18:35:23.039Z,1.20
2019-03-26T18:37:49.599Z,1.30
2019-03-26T18:40:16.346Z,1.10
2019-03-26T18:42:44.784Z,1.20
2019-03-26T18:45:11.893Z,1.20
2019-03-26T18:47:38.449Z,1.20
2019-03-26T18:50:05.427Z,1.20
2019-03-26T18:52:31.930Z,1.30
2019-03-26T18:54:58.519Z,1.20
2019-03-26T18:57:25.015Z,1.20
2019-03-26T18:59:51.458Z,1.20
2019-03-26T19:02:17.895Z,1.10
2019-03-26T19:04:44.442Z,1.00
2019-03-26T19:07:10.896Z,1.10
2019-03-26T19:09:37.387Z,1.10
2019-03-26T19:12:03.822Z,1.10
2019-03-26T19:14:30.294Z,1.10
2019-03-26T19:16:56.757Z,1.20
2019-03-26T19:19:23.206Z,1.10
2019-03-26T19:21:49.645Z,1.20
2019-03-26T19:24:16.238Z,1.20
2019-03-26T19:26:42.766Z,1.20
2019-03-26T19:29:09.108Z,1.10
2019-03-26T19:31:35.581Z,1.10
2019-03-26T19:34:02.061Z,1.00
2019-03-26T19:36:28.644Z,1.00
2019-03-26T19:38:55.028Z,0.90
2019-03-26T19:41:21.465Z,0.90
2019-03-26T19:43:47.877Z,0.90
2019-03-26T19:46:14.275Z,0.90
2019-03-26T19:48:40.665Z,0.80
2019-03-26T19:51:07.139Z,0.80
2019-03-26T19:53:33.586Z,0.70
2019-03-26T19:56:00.082Z,0.70
2019-03-26T19:58:26.569Z,0.70
2019-03-26T20:00:53.055Z,0.60
2019-03-26T20:03:19.504Z,0.60
2019-03-26T20:05:45.958Z,0.60
2019-03-26T20:08:12.399Z,0.60
2019-03-26T20:10:38.769Z,0.60
2019-03-26T20:13:05.227Z,0.50
2019-03-26T20:15:31.720Z,0.50
2019-03-26T20:17:58.195Z,0.40
2019-03-26T20:20:24.792Z,0.50
2019-03-26T20:22:51.254Z,0.50
2019-03-26T20:25:17.778Z,0.50
2019-03-26T20:27:44.249Z,0.40
2019-03-26T20:30:11.326Z,0.40
2019-03-26T20:32:37.814Z,0.40
2019-03-26T20:35:06.337Z,0.40
2019-03-26T20:37:32.869Z,0.30
2019-03-26T20:39:59.442Z,0.40
2019-03-26T20:42:25.870Z,0.30
2019-03-26T20:44:52.348Z,0.40
2019-03-26T20:47:18.809Z,0.30
2019-03-26T20:49:45.287Z,0.30
2019-03-26T20:52:11.820Z,0.30
2019-03-26T20:54:38.294Z,0.30
2019-03-26T20:57:04.752Z,0.20
2019-03-26T20:59:31.288Z,0.30
2019-03-26T21:01:57.756Z,0.10
2019-03-26T21:04:24.501Z,0.20
2019-03-26T21:06:50.942Z,0.10
2019-03-26T21:09:17.429Z,0.10
2019-03-26T21:11:43.858Z,0.00
2019-03-26T21:14:10.290Z,-0.10
2019-03-26T21:16:36.788Z,-0.10
2019-03-26T21:19:03.268Z,-0.20
2019-03-26T21:21:29.812Z,-0.10
2019-03-26T21:23:56.306Z,-0.20
2019-03-26T21:26:22.682Z,-0.30
2019-03-26T21:28:49.066Z,-0.30
2019-03-26T21:31:15.423Z,-0.30
2019-03-26T21:33:41.883Z,-0.30
2019-03-26T21:36:08.317Z,-0.30
2019-03-26T21:38:34.728Z,-0.40
2019-03-26T21:41:01.142Z,-0.40
2019-03-26T21:43:27.589Z,-0.30
2019-03-26T21:45:53.998Z,-0.40
2019-03-26T21:48:21.447Z,-0.30
2019-03-26T21:50:47.919Z,-0.30
2019-03-26T21:53:14.368Z,-0.30
2019-03-26T21:55:42.910Z,-0.40
2019-03-26T21:58:09.291Z,-0.40
2019-03-26T22:00:35.770Z,-0.50
2019-03-26T22:03:02.223Z,-0.40
2019-03-26T22:05:28.650Z,-0.50
2019-03-26T22:07:55.089Z,-0.50
2019-03-26T22:10:21.540Z,-0.60
2019-03-26T22:12:47.933Z,-0.60
2019-03-26T22:15:14.619Z,-0.70
2019-03-26T22:17:41.028Z,-0.70
2019-03-26T22:20:07.870Z,-0.70
2019-03-26T22:22:34.288Z,-0.70
2019-03-26T22:25:00.712Z,-0.70
2019-03-26T22:27:27.176Z,-0.70
2019-03-26T22:29:53.583Z,-0.70
2019-03-26T22:32:20.034Z,-0.70
2019-03-26T22:34:46.482Z,-0.70
2019-03-26T22:37:12.917Z,-0.80
2019-03-26T22:39:39.330Z,-0.70
2019-03-26T22:42:05.748Z,-0.80
2019-03-26T22:44:32.159Z,-0.80
2019-03-26T22:46:58.597Z,-0.80
2019-03-26T22:49:25.017Z,-0.80
2019-03-26T22:51:51.527Z,-0.80
2019-03-26T22:54:17.986Z,-0.80
2019-03-26T22:56:44.438Z,-0.90
2019-03-26T22:59:10.868Z,-0.80
2019-03-26T23:01:37.294Z,-0.70
2019-03-26T23:04:03.706Z,-0.80
2019-03-26T23:06:30.059Z,-0.80
2019-03-26T23:08:56.474Z,-0.80
2019-03-26T23:11:22.793Z,-0.80
2019-03-26T23:13:49.219Z,-0.80
2019-03-26T23:16:17.278Z,-1.00
2019-03-26T23:18:43.716Z,-0.90
2019-03-26T23:21:10.073Z,-1.00
2019-03-26T23:23:36.486Z,-1.10
2019-03-26T23:26:02.837Z,-1.20
2019-03-26T23:28:29.279Z,-1.10
2019-03-26T23:30:55.712Z,-1.20
2019-03-26T23:33:22.120Z,-1.30
2019-03-26T23:35:48.548Z,-1.20
2019-03-26T23:38:14.999Z,-1.20
2019-03-26T23:40:42.424Z,-1.30
2019-03-26T23:43:08.853Z,-1.40
2019-03-26T23:45:35.900Z,-1.40
2019-03-26T23:48:02.319Z,-1.50
2019-03-26T23:50:28.734Z,-1.50
2019-03-26T23:52:55.164Z,-1.50
2019-03-26T23:55:21.605Z,-1.60
2019-03-26T23:57:48.000Z,-1.70
